Time;durP1;ratioP1;P1;durP2;ratioP2;P2;SDS_P1;SDS_P2;PMS_P1;PMS_P2;Temp;Humidity;BMP_temperature;BMP_pressure;BME280_temperature;BME280_humidity;BME280_pressure;Samples;Min_cycle;Max_cycle;Signal;HPM_P1;HPM_P2
2021/03/16 00:00:29;;;;;;;12.43;4.28;;;;;;;8.59;53.54;101006.50;5093045;28;20300;-51
2021/03/16 00:03:02;;;;;;;7.65;2.90;;;;;;;8.90;52.42;101003.00;5095246;28;20314;-49
2021/03/16 00:05:29;;;;;;;20.92;6.57;;;;;;;8.43;53.00;101009.91;5092315;28;20265;-48
2021/03/16 00:07:56;;;;;;;3.75;1.80;;;;;;;8.64;52.15;101003.41;5095283;28;20231;-48
2021/03/16 00:10:23;;;;;;;23.60;8.98;;;;;;;8.74;51.90;101007.34;5094467;28;20251;-53
2021/03/16 00:12:50;;;;;;;5.53;2.20;;;;;;;8.63;51.94;101013.59;5095065;28;20207;-51
2021/03/16 00:15:17;;;;;;;10.38;2.10;;;;;;;8.84;51.34;101023.25;5089029;28;20318;-52
2021/03/16 00:17:43;;;;;;;10.93;3.65;;;;;;;8.45;51.77;101029.75;5074242;28;20228;-53
2021/03/16 00:20:11;;;;;;;7.70;2.10;;;;;;;8.54;51.70;101036.25;5072575;28;20312;-52
2021/03/16 00:22:37;;;;;;;8.30;2.55;;;;;;;8.79;51.11;101033.31;5073827;28;20211;-50
2021/03/16 00:25:14;;;;;;;6.50;1.92;;;;;;;8.83;50.98;101032.69;5072561;28;20254;-49
2021/03/16 00:27:41;;;;;;;3.63;1.55;;;;;;;8.59;51.07;101042.53;5074156;28;20212;-56
2021/03/16 00:30:09;;;;;;;9.95;2.53;;;;;;;8.71;50.68;101038.03;5070280;28;20661;-52
2021/03/16 00:32:36;;;;;;;15.23;4.68;;;;;;;8.74;50.84;101038.22;5073978;28;20254;-51
2021/03/16 00:35:04;;;;;;;7.30;2.53;;;;;;;8.59;51.31;101038.28;5070144;28;20707;-50
2021/03/16 00:37:30;;;;;;;8.50;2.88;;;;;;;8.64;50.82;101046.22;5073882;28;20535;-50
2021/03/16 00:39:57;;;;;;;29.08;11.18;;;;;;;8.55;51.49;101050.91;5070837;28;20315;-51
2021/03/16 00:42:24;;;;;;;12.90;4.80;;;;;;;8.72;50.45;101059.53;5074335;28;20300;-53
2021/03/16 00:44:51;;;;;;;4.93;1.70;;;;;;;8.41;51.21;101057.81;5072663;28;20240;-53
2021/03/16 00:47:17;;;;;;;20.48;6.40;;;;;;;8.73;50.81;101069.00;5078222;28;20201;-52
2021/03/16 00:49:44;;;;;;;12.07;4.95;;;;;;;8.40;50.32;101062.06;5096218;27;20245;-54
2021/03/16 00:52:11;;;;;;;8.30;1.90;;;;;;;8.42;50.78;101065.63;5082545;28;20204;-50
2021/03/16 00:54:38;;;;;;;5.90;2.20;;;;;;;8.30;50.83;101070.06;5068721;28;20236;-51
2021/03/16 00:57:05;;;;;;;8.82;1.40;;;;;;;7.80;51.98;101073.28;5078046;28;20311;-54
2021/03/16 00:59:32;;;;;;;4.80;1.70;;;;;;;7.98;51.68;101080.28;5076452;28;20228;-53
2021/03/16 01:01:59;;;;;;;8.73;3.05;;;;;;;7.91;51.78;101079.06;5078241;28;20197;-48
2021/03/16 01:04:26;;;;;;;6.78;2.38;;;;;;;8.37;50.52;101077.31;5074874;28;20232;-49
2021/03/16 01:06:53;;;;;;;7.82;2.20;;;;;;;8.13;51.08;101072.56;5078180;28;20200;-52
2021/03/16 01:09:19;;;;;;;26.35;9.77;;;;;;;8.42;51.80;101075.00;5076648;28;20319;-52
2021/03/16 01:11:46;;;;;;;7.90;2.13;;;;;;;8.28;50.81;101076.78;5078240;28;20207;-49
2021/03/16 01:14:12;;;;;;;8.32;3.35;;;;;;;8.39;51.08;101080.84;5075680;28;20324;-53
2021/03/16 01:16:39;;;;;;;2.70;1.50;;;;;;;8.32;50.42;101078.75;5077971;28;20630;-51
2021/03/16 01:19:07;;;;;;;8.73;3.78;;;;;;;8.26;51.50;101078.41;5076704;28;20256;-49
2021/03/16 01:21:33;;;;;;;6.20;1.73;;;;;;;7.95;51.10;101082.69;5078472;28;20197;-50
2021/03/16 01:24:00;;;;;;;5.05;1.75;;;;;;;8.00;50.93;101088.09;5070734;28;20229;-52
2021/03/16 01:26:27;;;;;;;11.02;2.78;;;;;;;8.17;50.91;101086.47;5078504;28;20200;-49
2021/03/16 01:28:53;;;;;;;7.45;1.90;;;;;;;7.91;51.43;101081.63;5076486;28;20673;-48
2021/03/16 01:31:20;;;;;;;2.95;1.42;;;;;;;7.95;51.47;101088.69;5078099;28;20227;-49
2021/03/16 01:33:47;;;;;;;4.60;1.90;;;;;;;8.17;51.24;101089.94;5078446;28;20258;-51
2021/03/16 01:36:14;;;;;;;3.60;1.70;;;;;;;8.16;50.81;101082.13;5097984;28;20196;-48
2021/03/16 01:38:40;;;;;;;7.00;2.40;;;;;;;8.42;50.67;101088.75;5075909;28;20609;-50
2021/03/16 01:41:07;;;;;;;5.15;1.83;;;;;;;8.36;50.16;101085.84;5078032;28;20292;-49
2021/03/16 01:43:34;;;;;;;3.33;1.42;;;;;;;8.13;50.97;101082.84;5073350;28;20232;-48
2021/03/16 01:46:01;;;;;;;6.50;1.70;;;;;;;7.76;51.35;101086.75;5077774;28;20204;-47
2021/03/16 01:48:31;;;;;;;4.75;1.52;;;;;;;7.66;51.86;101087.00;5076466;28;20311;-49
2021/03/16 01:50:58;;;;;;;5.97;1.60;;;;;;;7.48;52.54;101085.13;5077874;28;20256;-48
2021/03/16 01:53:26;;;;;;;10.05;1.50;;;;;;;7.35;52.38;101082.59;5075660;28;20243;-50
2021/03/16 01:55:54;;;;;;;3.80;1.35;;;;;;;7.58;52.48;101081.41;5075854;28;20232;-48
2021/03/16 01:58:21;;;;;;;3.85;1.50;;;;;;;7.61;51.79;101081.59;5074299;28;20717;-53
2021/03/16 02:00:48;;;;;;;5.00;1.50;;;;;;;7.33;52.69;101085.06;5097495;28;20200;-50
2021/03/16 02:03:14;;;;;;;12.65;2.55;;;;;;;7.40;52.81;101087.22;5093956;28;20250;-51
2021/03/16 02:05:43;;;;;;;6.65;1.80;;;;;;;7.57;52.67;101092.47;5077255;28;20197;-47
2021/03/16 02:08:15;;;;;;;4.55;1.52;;;;;;;7.57;52.31;101100.19;5069563;27;20229;-48
2021/03/16 02:10:48;;;;;;;6.60;1.75;;;;;;;7.18;53.17;101089.28;5111726;28;20224;-53
2021/03/16 02:13:21;;;;;;;9.63;1.83;;;;;;;7.34;52.98;101091.09;5093169;28;20206;-48
2021/03/16 02:15:51;;;;;;;6.10;1.40;;;;;;;7.24;52.88;101094.81;5076862;28;20595;-50
2021/03/16 02:18:20;;;;;;;7.43;2.05;;;;;;;7.36;53.10;101098.13;5069884;27;20237;-51
2021/03/16 02:21:05;;;;;;;9.80;1.90;;;;;;;7.40;53.09;101097.47;5111035;28;20291;-51
2021/03/16 02:23:42;;;;;;;5.15;2.17;;;;;;;7.81;52.47;101097.28;5088598;28;20241;-48
2021/03/16 02:26:16;;;;;;;6.05;2.22;;;;;;;7.68;52.43;101099.13;5077438;28;20201;-49
2021/03/16 02:29:00;;;;;;;2.97;1.55;;;;;;;7.60;52.89;101102.94;5078691;28;20264;-49
2021/03/16 02:31:27;;;;;;;3.28;1.90;;;;;;;7.51;52.91;101104.94;5104929;28;20301;-49
2021/03/16 02:33:55;;;;;;;3.55;1.38;;;;;;;7.60;52.68;101105.53;5084069;28;20267;-49
2021/03/16 02:36:23;;;;;;;9.68;1.80;;;;;;;7.36;53.58;101105.81;5077270;28;20212;-50
2021/03/16 02:38:52;;;;;;;9.73;1.98;;;;;;;7.52;53.06;101104.16;5082839;28;20614;-53
2021/03/16 02:41:20;;;;;;;7.45;2.20;;;;;;;7.20;53.75;101104.00;5110410;28;20605;-50
2021/03/16 02:43:47;;;;;;;13.73;2.38;;;;;;;7.02;54.48;101116.56;5107632;27;20226;-51
2021/03/16 02:46:16;;;;;;;10.23;2.28;;;;;;;7.27;54.07;101111.28;5127644;27;20204;-47
2021/03/16 02:48:44;;;;;;;8.02;2.53;;;;;;;7.46;53.67;101114.06;5108364;27;20235;-50
2021/03/16 02:51:10;;;;;;;12.18;3.95;;;;;;;7.57;53.53;101115.59;5117577;28;20293;-49
2021/03/16 02:53:38;;;;;;;4.80;2.00;;;;;;;7.46;53.87;101116.63;5111299;27;20313;-50
2021/03/16 02:56:05;;;;;;;8.55;3.15;;;;;;;7.55;53.93;101124.91;5128383;27;20300;-49
2021/03/16 02:58:33;;;;;;;6.90;1.88;;;;;;;7.36;54.37;101123.78;5116086;27;20239;-48
2021/03/16 03:01:00;;;;;;;9.43;2.22;;;;;;;7.37;53.93;101125.56;5117482;28;20200;-51
2021/03/16 03:03:29;;;;;;;7.53;2.55;;;;;;;7.25;54.43;101132.50;5115983;27;20235;-50
2021/03/16 03:05:56;;;;;;;8.98;2.00;;;;;;;7.27;54.50;101123.22;5117043;28;20684;-55
2021/03/16 03:08:23;;;;;;;17.45;2.20;;;;;;;7.19;54.74;101132.13;5113881;27;20237;-50
2021/03/16 03:10:50;;;;;;;5.63;1.95;;;;;;;7.05;55.24;101139.88;5116579;28;20226;-51
2021/03/16 03:13:17;;;;;;;5.63;2.10;;;;;;;7.18;55.29;101140.63;5106297;27;20278;-52
2021/03/16 03:15:44;;;;;;;8.15;3.53;;;;;;;7.19;55.62;101144.97;5131293;27;20200;-52
2021/03/16 03:18:11;;;;;;;7.10;2.80;;;;;;;7.22;55.70;101143.47;5106588;27;20632;-49
2021/03/16 03:20:39;;;;;;;7.15;2.45;;;;;;;7.33;55.19;101145.81;5131889;27;20196;-51
2021/03/16 03:23:11;;;;;;;10.55;2.60;;;;;;;7.38;55.06;101144.41;5114248;27;20212;-52
2021/03/16 03:25:40;;;;;;;5.63;2.30;;;;;;;7.36;55.15;101146.88;5116805;28;20207;-52
2021/03/16 03:28:10;;;;;;;15.52;3.40;;;;;;;7.46;55.12;101147.44;5115467;27;21020;-51
2021/03/16 03:30:37;;;;;;;4.80;2.50;;;;;;;7.45;55.11;101149.13;5116746;28;20215;-50
2021/03/16 03:33:04;;;;;;;11.38;2.95;;;;;;;7.55;55.42;101151.44;5114368;27;20223;-50
2021/03/16 03:35:32;;;;;;;8.20;3.05;;;;;;;7.35;56.30;101155.38;5116282;28;20227;-51
2021/03/16 03:38:01;;;;;;;9.95;3.25;;;;;;;7.46;56.01;101152.56;5112819;27;20256;-52
2021/03/16 03:40:28;;;;;;;7.75;2.95;;;;;;;7.77;55.57;101152.75;5116928;28;20223;-53
2021/03/16 03:42:55;;;;;;;15.52;4.40;;;;;;;7.73;55.30;101157.63;5116737;28;20203;-52
2021/03/16 03:45:23;;;;;;;14.95;3.70;;;;;;;7.82;55.30;101160.72;5115878;28;20254;-51
2021/03/16 03:47:50;;;;;;;11.05;3.88;;;;;;;7.39;56.14;101166.72;5109426;28;20224;-50
2021/03/16 03:50:17;;;;;;;10.55;3.88;;;;;;;7.18;57.43;101166.28;5075082;28;20319;-51
2021/03/16 03:52:45;;;;;;;13.48;3.17;;;;;;;7.45;57.20;101167.09;5076040;28;20291;-50
2021/03/16 03:55:14;;;;;;;13.63;3.40;;;;;;;7.54;57.05;101162.50;5092741;28;20242;-52
2021/03/16 03:57:53;;;;;;;13.85;3.72;;;;;;;7.59;57.16;101170.50;5095964;28;20224;-53
2021/03/16 04:00:21;;;;;;;14.10;3.63;;;;;;;7.80;56.52;101170.03;5074529;28;20232;-50
2021/03/16 04:02:48;;;;;;;19.88;3.65;;;;;;;8.04;56.28;101167.09;5075513;28;20208;-51
2021/03/16 04:05:15;;;;;;;26.10;4.78;;;;;;;7.32;58.00;101170.59;5100243;27;20251;-51
2021/03/16 04:07:42;;;;;;;18.52;3.58;;;;;;;7.42;58.06;101170.38;5096036;28;20200;-49
2021/03/16 04:10:10;;;;;;;12.50;4.13;;;;;;;7.42;58.21;101177.16;5069501;28;20237;-50
2021/03/16 04:12:39;;;;;;;18.98;3.38;;;;;;;7.13;58.64;101177.16;5075709;28;20211;-51
2021/03/16 04:15:08;;;;;;;19.45;4.20;;;;;;;7.45;58.57;101177.38;5092354;28;20645;-50
2021/03/16 04:17:36;;;;;;;10.63;3.22;;;;;;;7.79;57.89;101178.53;5095639;28;20242;-48
2021/03/16 04:20:04;;;;;;;17.17;3.30;;;;;;;7.55;58.10;101173.69;5069667;28;20239;-53
2021/03/16 04:22:31;;;;;;;20.52;3.45;;;;;;;7.54;58.65;101187.31;5075569;28;20205;-47
2021/03/16 04:24:58;;;;;;;12.52;4.70;;;;;;;7.66;58.49;101175.22;5090749;28;20232;-48
2021/03/16 04:27:25;;;;;;;23.52;4.60;;;;;;;7.60;58.30;101172.28;5095544;28;20295;-48
2021/03/16 04:29:52;;;;;;;17.40;3.80;;;;;;;7.58;58.49;101186.69;5078620;28;20290;-51
2021/03/16 04:32:20;;;;;;;18.83;3.25;;;;;;;7.89;57.98;101183.41;5075511;28;20288;-53
2021/03/16 04:34:47;;;;;;;30.75;4.47;;;;;;;7.72;58.73;101190.09;5089555;28;20236;-53
2021/03/16 04:37:14;;;;;;;27.08;3.53;;;;;;;7.68;58.97;101183.91;5095567;28;20203;-48
2021/03/16 04:39:41;;;;;;;14.55;4.53;;;;;;;8.05;58.50;101192.03;5079826;28;20236;-48
2021/03/16 04:42:08;;;;;;;19.23;5.00;;;;;;;8.44;57.62;101200.28;5075302;28;20193;-50
2021/03/16 04:44:35;;;;;;;18.65;4.05;;;;;;;8.15;58.10;101199.47;5087781;28;20559;-49
2021/03/16 04:47:02;;;;;;;23.85;4.25;;;;;;;8.49;57.52;101206.59;5095645;28;20320;-48
2021/03/16 04:49:29;;;;;;;15.55;4.75;;;;;;;8.51;58.22;101214.38;5081248;28;20236;-50
2021/03/16 04:51:56;;;;;;;16.17;5.88;;;;;;;8.33;58.34;101214.22;5075195;28;20221;-50
2021/03/16 04:54:23;;;;;;;31.90;5.72;;;;;;;8.14;59.08;101214.81;5086010;28;20238;-49
2021/03/16 04:56:51;;;;;;;20.48;5.65;;;;;;;8.10;59.46;101221.44;5095140;28;20204;-50
2021/03/16 04:59:17;;;;;;;22.25;5.70;;;;;;;8.23;60.09;101228.22;5083878;28;20279;-47
2021/03/16 05:01:44;;;;;;;39.67;7.07;;;;;;;7.86;60.62;101237.19;5080580;28;20197;-49
2021/03/16 05:04:12;;;;;;;26.65;6.72;;;;;;;7.99;60.64;101243.06;5078432;28;20239;-50
2021/03/16 05:06:38;;;;;;;26.38;7.50;;;;;;;7.88;61.40;101240.72;5101614;28;20233;-52
2021/03/16 05:09:05;;;;;;;38.20;9.15;;;;;;;8.20;60.45;101244.34;5083414;28;20237;-52
2021/03/16 05:11:32;;;;;;;37.08;10.90;;;;;;;8.23;60.91;101244.53;5074827;28;20231;-49
2021/03/16 05:13:59;;;;;;;42.08;9.98;;;;;;;7.82;61.63;101248.06;5081836;28;20726;-50
2021/03/16 05:16:26;;;;;;;25.33;9.02;;;;;;;7.72;61.95;101253.41;5095453;28;20253;-48
2021/03/16 05:18:53;;;;;;;46.42;13.77;;;;;;;8.09;61.21;101246.28;5086013;28;20237;-49
2021/03/16 05:21:20;;;;;;;52.83;14.10;;;;;;;8.04;61.95;101255.38;5075042;28;20205;-51
2021/03/16 05:23:47;;;;;;;47.42;14.88;;;;;;;8.07;61.75;101252.13;5077089;28;20235;-50
2021/03/16 05:26:13;;;;;;;51.25;15.35;;;;;;;8.13;61.38;101252.47;5104156;28;20292;-49
2021/03/16 05:28:59;;;;;;;48.05;15.88;;;;;;;8.05;61.58;101256.28;5079319;28;20264;-50
2021/03/16 05:31:26;;;;;;;63.67;17.45;;;;;;;8.08;61.63;101264.16;5077870;28;20229;-52
2021/03/16 05:33:53;;;;;;;64.15;18.75;;;;;;;8.34;61.59;101262.25;5081732;28;20243;-50
2021/03/16 05:36:20;;;;;;;68.45;19.67;;;;;;;8.43;61.49;101261.91;5107206;28;20208;-50
2021/03/16 05:38:47;;;;;;;49.45;17.85;;;;;;;8.47;61.08;101259.59;5083207;28;20614;-51
2021/03/16 05:41:14;;;;;;;68.60;17.60;;;;;;;8.47;61.02;101262.19;5078356;28;20284;-48
2021/03/16 05:43:41;;;;;;;64.45;21.20;;;;;;;8.89;60.17;101266.28;5082785;28;20228;-49
2021/03/16 05:46:09;;;;;;;66.65;18.65;;;;;;;8.68;60.77;101269.41;5098463;28;20206;-49
2021/03/16 05:48:37;;;;;;;58.78;20.13;;;;;;;8.77;60.33;101262.22;5087554;28;20229;-47
2021/03/16 05:51:04;;;;;;;67.05;20.38;;;;;;;9.03;59.70;101272.22;5078004;28;20256;-52
2021/03/16 05:56:19;;;;;;;62.97;21.58;;;;;;;9.15;59.13;101264.28;5097972;28;20565;-50
2021/03/16 05:58:47;;;;;;;60.22;20.45;;;;;;;9.32;58.73;101266.13;5077364;28;20243;-48
2021/03/16 06:01:16;;;;;;;59.30;18.30;;;;;;;9.44;58.74;101275.31;5077408;28;20288;-52
2021/03/16 06:03:42;;;;;;;54.20;19.48;;;;;;;9.54;58.54;101280.16;5082669;28;20231;-53
2021/03/16 06:06:10;;;;;;;68.40;18.55;;;;;;;9.83;57.56;101277.38;5098030;28;20200;-51
2021/03/16 06:08:37;;;;;;;63.03;18.30;;;;;;;9.95;57.69;101272.00;5091285;28;20256;-52
2021/03/16 06:11:06;;;;;;;61.33;17.55;;;;;;;9.80;57.10;101275.50;5077824;28;20549;-51
2021/03/16 06:13:33;;;;;;;48.70;16.88;;;;;;;9.92;57.11;101275.28;5081106;28;20308;-53
2021/03/16 06:16:00;;;;;;;45.27;16.20;;;;;;;9.58;57.76;101284.69;5097621;28;20210;-50
2021/03/16 06:18:28;;;;;;;57.43;17.70;;;;;;;9.88;57.16;101290.53;5092222;28;20546;-50
2021/03/16 06:20:58;;;;;;;50.63;15.80;;;;;;;9.89;57.74;101285.44;5077618;28;20895;-49
2021/03/16 06:23:30;;;;;;;47.47;15.50;;;;;;;9.82;57.08;101285.91;5074221;27;20790;-49
2021/03/16 06:25:58;;;;;;;47.50;15.07;;;;;;;9.93;56.67;101292.53;5109462;28;20516;-49
2021/03/16 06:28:31;;;;;;;40.70;13.73;;;;;;;9.80;57.85;101284.94;5091930;28;20453;-48
2021/03/16 06:30:58;;;;;;;46.50;14.77;;;;;;;9.93;56.76;101294.22;5077309;28;20902;-50
2021/03/16 06:33:28;;;;;;;53.43;13.30;;;;;;;10.16;56.86;101290.28;5073320;28;20825;-47
2021/03/16 06:35:59;;;;;;;29.03;14.10;;;;;;;10.17;56.45;101297.22;5109506;28;20428;-50
2021/03/16 06:38:28;;;;;;;39.53;11.80;;;;;;;10.58;55.27;101305.31;5086794;28;20828;-48
2021/03/16 06:40:55;;;;;;;26.90;9.90;;;;;;;10.18;55.82;101301.56;5077177;28;20450;-50
2021/03/16 06:43:24;;;;;;;34.63;10.73;;;;;;;9.92;56.29;101302.75;5067022;28;20481;-50
2021/03/16 06:45:52;;;;;;;27.33;8.70;;;;;;;10.24;55.62;101299.28;5109764;28;20464;-51
2021/03/16 06:48:20;;;;;;;26.13;8.97;;;;;;;10.26;55.47;101302.81;5092667;28;20472;-52
2021/03/16 06:50:48;;;;;;;23.07;7.60;;;;;;;10.41;54.74;101307.00;5076811;28;20510;-48
2021/03/16 06:53:15;;;;;;;20.03;7.43;;;;;;;10.66;54.10;101304.00;5069432;27;20435;-51
2021/03/16 06:55:52;;;;;;;30.50;7.87;;;;;;;10.88;53.44;101310.22;5109111;28;20459;-50
2021/03/16 06:58:23;;;;;;;29.93;7.93;;;;;;;10.72;53.71;101310.28;5086190;28;20450;-52
2021/03/16 07:00:50;;;;;;;32.97;7.60;;;;;;;10.72;53.64;101313.75;5089072;28;20451;-49
2021/03/16 07:03:17;;;;;;;37.40;6.73;;;;;;;10.55;54.12;101310.31;5069984;28;20476;-53
2021/03/16 07:05:45;;;;;;;35.67;6.73;;;;;;;10.49;54.91;101307.44;5110238;28;20435;-51
2021/03/16 07:08:13;;;;;;;20.87;6.80;;;;;;;10.71;54.35;101316.28;5076912;28;20939;-51
2021/03/16 07:10:41;;;;;;;14.80;4.80;;;;;;;10.52;54.51;101317.91;5090663;28;20561;-47
2021/03/16 07:13:10;;;;;;;12.30;3.63;;;;;;;10.36;54.37;101321.38;5076814;28;20808;-47
2021/03/16 07:15:40;;;;;;;23.50;5.63;;;;;;;10.31;54.21;101315.09;5096478;28;20465;-55
2021/03/16 07:18:09;;;;;;;21.73;6.13;;;;;;;10.69;53.82;101318.75;5085283;28;20912;-51
2021/03/16 07:20:36;;;;;;;20.90;6.40;;;;;;;10.61;53.44;101328.69;5090995;28;20570;-49
2021/03/16 07:23:04;;;;;;;27.13;7.10;;;;;;;10.44;53.58;101332.09;5075996;28;20435;-54
2021/03/16 07:25:30;;;;;;;21.17;6.40;;;;;;;10.26;53.94;101332.91;5096307;28;20478;-50
2021/03/16 07:28:02;;;;;;;19.00;6.03;;;;;;;10.99;52.96;101333.13;5094028;28;20460;-53
2021/03/16 07:30:32;;;;;;;20.03;5.80;;;;;;;10.49;53.16;101330.66;5075997;28;20898;-51
2021/03/16 07:33:02;;;;;;;24.00;7.93;;;;;;;10.72;51.99;101333.53;5069618;28;20440;-56
2021/03/16 07:35:30;;;;;;;15.97;5.67;;;;;;;10.46;52.85;101335.66;5096020;28;20560;-51
2021/03/16 07:38:01;;;;;;;15.53;5.90;;;;;;;10.89;51.80;101331.78;5096081;28;20452;-55
2021/03/16 07:40:27;;;;;;;19.87;5.87;;;;;;;11.10;52.03;101344.88;5076065;28;20510;-47
2021/03/16 07:42:54;;;;;;;18.43;6.87;;;;;;;11.30;50.67;101350.09;5075888;28;20496;-53
2021/03/16 07:45:25;;;;;;;17.23;5.70;;;;;;;11.19;51.33;101344.44;5094019;28;20508;-50
2021/03/16 07:47:52;;;;;;;18.63;6.17;;;;;;;10.86;52.05;101352.28;5095423;28;20478;-53
2021/03/16 07:50:29;;;;;;;20.07;4.77;;;;;;;10.86;51.74;101345.41;5073950;28;20485;-49
2021/03/16 07:52:55;;;;;;;20.37;5.40;;;;;;;10.75;52.08;101351.72;5075345;28;20486;-50
2021/03/16 07:55:26;;;;;;;21.10;5.50;;;;;;;10.36;51.96;101350.63;5094339;28;20472;-52
2021/03/16 07:57:53;;;;;;;10.40;5.43;;;;;;;10.21;52.48;101355.84;5095234;28;20482;-53
2021/03/16 08:00:29;;;;;;;19.00;5.17;;;;;;;10.58;51.92;101354.34;5100178;28;20462;-51
2021/03/16 08:03:02;;;;;;;24.33;5.80;;;;;;;10.85;52.01;101356.56;5091465;28;20473;-58
2021/03/16 08:05:40;;;;;;;17.23;5.37;;;;;;;10.31;52.79;101352.06;5093925;28;20432;-56
2021/03/16 08:08:15;;;;;;;12.93;4.60;;;;;;;9.92;53.46;101362.03;5092864;28;20480;-57
2021/03/16 08:10:42;;;;;;;14.60;5.60;;;;;;;10.65;51.90;101358.13;5094795;28;20461;-49
2021/03/16 08:13:14;;;;;;;13.17;5.10;;;;;;;10.63;52.18;101362.31;5091337;28;20461;-51
2021/03/16 08:15:42;;;;;;;20.07;5.50;;;;;;;10.77;51.73;101363.03;5075298;28;20473;-50
2021/03/16 08:18:10;;;;;;;31.03;7.67;;;;;;;10.81;53.28;101359.78;5067018;28;20450;-48
2021/03/16 08:20:37;;;;;;;24.50;5.53;;;;;;;10.46;52.09;101371.78;5110320;28;20432;-50
2021/03/16 08:23:09;;;;;;;24.33;6.97;;;;;;;10.86;51.81;101366.06;5090450;27;20486;-53
2021/03/16 08:25:37;;;;;;;24.73;7.00;;;;;;;11.51;50.07;101370.03;5086985;28;20457;-51
2021/03/16 08:28:07;;;;;;;13.40;5.30;;;;;;;11.13;50.97;101375.13;5074178;28;20475;-49
2021/03/16 08:30:35;;;;;;;17.40;4.10;;;;;;;10.98;51.47;101368.38;5075021;28;20561;-49
2021/03/16 08:33:09;;;;;;;18.83;4.60;;;;;;;11.56;50.71;101371.13;5071381;28;20474;-49
2021/03/16 08:35:40;;;;;;;29.57;8.07;;;;;;;11.48;50.34;101373.34;5094857;28;20432;-50
2021/03/16 08:38:08;;;;;;;19.20;4.70;;;;;;;11.47;50.02;101364.72;5093331;28;20520;-48
2021/03/16 08:40:35;;;;;;;26.93;5.70;;;;;;;11.57;49.23;101372.91;5095494;28;20485;-49
2021/03/16 08:43:08;;;;;;;12.27;3.10;;;;;;;11.07;50.27;101383.44;5093813;28;20454;-51
2021/03/16 08:45:35;;;;;;;20.97;4.43;;;;;;;10.96;50.13;101379.44;5094636;28;20521;-48
2021/03/16 08:48:03;;;;;;;11.23;3.90;;;;;;;10.76;51.50;101372.47;5085103;28;20484;-53
2021/03/16 08:50:30;;;;;;;17.20;3.73;;;;;;;11.33;50.10;101381.25;5110258;28;20785;-51
2021/03/16 08:53:03;;;;;;;15.80;3.30;;;;;;;11.40;50.12;101382.44;5095422;28;20464;-51
2021/03/16 08:55:30;;;;;;;19.83;4.00;;;;;;;11.56;49.04;101376.31;5094475;28;20440;-51
2021/03/16 08:58:09;;;;;;;30.30;8.57;;;;;;;11.29;50.19;101384.50;5093697;28;20940;-56
2021/03/16 09:00:38;;;;;;;15.50;3.50;;;;;;;11.15;50.46;101379.56;5094880;28;20545;-49
2021/03/16 09:03:05;;;;;;;12.80;3.33;;;;;;;11.40;49.96;101378.16;5094269;28;20464;-50
2021/03/16 09:05:32;;;;;;;12.90;3.47;;;;;;;11.31;50.82;101382.88;5096727;28;20872;-53
2021/03/16 09:08:00;;;;;;;23.23;6.00;;;;;;;11.16;50.27;101383.91;5097782;28;20478;-54
2021/03/16 09:10:28;;;;;;;20.47;3.90;;;;;;;11.37;49.60;101387.47;5099070;28;20760;-50
2021/03/16 09:12:56;;;;;;;16.13;3.93;;;;;;;11.39;50.07;101378.97;5098984;28;20480;-51
2021/03/16 09:15:29;;;;;;;22.77;3.93;;;;;;;11.74;48.80;101384.94;5097097;28;20577;-51
2021/03/16 09:18:00;;;;;;;24.47;3.70;;;;;;;11.63;49.89;101385.25;5098217;28;20559;-52
2021/03/16 09:20:29;;;;;;;24.30;4.23;;;;;;;11.36;49.96;101381.41;5097883;28;20911;-49
2021/03/16 09:22:58;;;;;;;19.70;2.83;;;;;;;11.51;50.26;101385.53;5097848;28;20460;-50
2021/03/16 09:25:26;;;;;;;18.57;3.00;;;;;;;11.92;49.53;101389.19;5096970;28;20453;-50
2021/03/16 09:27:59;;;;;;;13.60;3.40;;;;;;;12.03;49.22;101387.09;5097623;28;20485;-50
2021/03/16 09:30:28;;;;;;;19.70;4.20;;;;;;;12.06;49.73;101391.56;5073662;28;20477;-52
2021/03/16 09:32:55;;;;;;;29.00;9.60;;;;;;;11.98;49.13;101389.47;5077789;28;20483;-55
2021/03/16 09:35:22;;;;;;;23.47;3.87;;;;;;;12.19;48.52;101388.72;5097302;28;20458;-51
2021/03/16 09:37:50;;;;;;;12.60;3.17;;;;;;;12.38;48.65;101389.53;5097915;28;20481;-54
2021/03/16 09:40:18;;;;;;;14.93;4.03;;;;;;;11.91;49.51;101394.28;5096693;28;20522;-52
2021/03/16 09:42:48;;;;;;;14.17;3.10;;;;;;;12.45;47.63;101401.06;5098041;28;20817;-49
2021/03/16 09:45:17;;;;;;;13.70;3.03;;;;;;;12.40;47.56;101388.78;5094241;28;20485;-50
2021/03/16 09:47:45;;;;;;;22.33;5.00;;;;;;;12.25;47.85;101390.72;5097617;28;20986;-52
2021/03/16 09:50:15;;;;;;;19.40;3.40;;;;;;;12.35;47.72;101395.47;5102852;27;20499;-51
2021/03/16 09:52:42;;;;;;;19.43;3.10;;;;;;;12.90;47.63;101393.50;5094444;28;20484;-49
2021/03/16 09:55:10;;;;;;;18.50;2.90;;;;;;;12.86;46.38;101394.19;5098593;28;20492;-52
2021/03/16 09:57:38;;;;;;;16.80;2.93;;;;;;;12.46;47.39;101397.66;5097578;28;20472;-50
2021/03/16 10:00:07;;;;;;;14.90;3.13;;;;;;;12.41;47.32;101410.41;5096252;28;20974;-52
2021/03/16 10:02:42;;;;;;;18.30;4.00;;;;;;;12.19;48.13;101408.53;5096412;28;20802;-50
2021/03/16 10:05:12;;;;;;;19.10;3.87;;;;;;;12.66;47.07;101416.63;5091730;28;20507;-49
2021/03/16 10:07:41;;;;;;;17.93;5.27;;;;;;;12.79;47.52;101410.28;5097774;28;20451;-53
2021/03/16 10:10:12;;;;;;;19.90;4.10;;;;;;;12.50;47.34;101415.97;5095963;28;20781;-52
2021/03/16 10:12:39;;;;;;;23.80;3.13;;;;;;;12.42;48.47;101422.50;5097527;28;20509;-50
2021/03/16 10:15:07;;;;;;;13.27;2.67;;;;;;;12.46;47.79;101424.41;5096252;28;20952;-53
2021/03/16 10:17:40;;;;;;;14.30;3.43;;;;;;;12.43;47.32;101426.88;5096719;28;20454;-51
2021/03/16 10:20:09;;;;;;;14.80;2.87;;;;;;;12.53;45.96;101431.66;5096353;28;20539;-48
2021/03/16 10:22:36;;;;;;;15.87;4.37;;;;;;;13.40;44.72;101438.69;5097997;28;20450;-50
2021/03/16 10:25:06;;;;;;;12.30;3.40;;;;;;;12.88;44.57;101431.41;5096001;28;20767;-52
2021/03/16 10:27:33;;;;;;;13.50;2.93;;;;;;;12.25;47.16;101432.97;5097672;28;20459;-55
2021/03/16 10:30:03;;;;;;;19.27;2.60;;;;;;;12.41;47.51;101436.28;5096393;28;20516;-53
2021/03/16 10:32:30;;;;;;;20.27;2.90;;;;;;;12.95;46.71;101432.53;5097652;28;20593;-49
2021/03/16 10:34:57;;;;;;;11.20;2.60;;;;;;;12.11;47.27;101436.63;5095765;28;20477;-50
2021/03/16 10:37:25;;;;;;;18.30;2.57;;;;;;;12.45;47.51;101442.47;5097543;28;20442;-50
2021/03/16 10:39:53;;;;;;;22.57;3.13;;;;;;;12.50;46.84;101441.84;5095287;28;20573;-52
2021/03/16 10:42:20;;;;;;;13.47;3.20;;;;;;;13.08;46.26;101440.00;5097538;28;20450;-53
2021/03/16 10:44:47;;;;;;;13.53;2.53;;;;;;;13.30;45.87;101438.34;5095866;28;20486;-54
2021/03/16 10:47:13;;;;;;;21.20;3.67;;;;;;;13.37;45.53;101434.28;5097756;28;20819;-52
2021/03/16 10:49:40;;;;;;;11.37;2.50;;;;;;;12.79;45.45;101431.91;5096185;28;20486;-51
2021/03/16 10:52:07;;;;;;;10.03;3.20;;;;;;;12.67;46.16;101439.13;5097284;28;21030;-50
2021/03/16 10:54:35;;;;;;;9.80;3.20;;;;;;;12.56;46.23;101431.75;5095609;28;20476;-53
2021/03/16 10:57:04;;;;;;;19.83;2.73;;;;;;;13.18;46.23;101443.00;5097093;28;20553;-51
2021/03/16 10:59:31;;;;;;;13.37;3.00;;;;;;;12.56;45.79;101441.22;5095181;28;20514;-54
2021/03/16 11:01:57;;;;;;;9.10;2.17;;;;;;;12.44;46.18;101451.91;5096992;28;20902;-49
2021/03/16 11:04:25;;;;;;;11.23;3.63;;;;;;;13.03;45.17;101438.06;5095349;28;20478;-50
2021/03/16 11:06:51;;;;;;;17.63;4.60;;;;;;;12.94;44.79;101448.91;5097026;28;20470;-54
2021/03/16 11:09:18;;;;;;;16.20;2.87;;;;;;;13.32;44.69;101441.88;5086033;28;20489;-49
2021/03/16 11:11:44;;;;;;;19.77;2.70;;;;;;;12.66;45.86;101450.28;5096827;28;21068;-53
2021/03/16 11:14:13;;;;;;;16.60;2.50;;;;;;;12.78;44.85;101444.78;5095063;28;20479;-47
2021/03/16 11:16:40;;;;;;;16.70;3.27;;;;;;;12.92;45.36;101448.84;5097082;28;20548;-50
2021/03/16 11:19:07;;;;;;;12.80;2.60;;;;;;;12.46;46.05;101460.63;5095382;28;20829;-53
2021/03/16 11:21:33;;;;;;;13.83;2.43;;;;;;;12.91;44.53;101448.75;5096608;28;20893;-50
2021/03/16 11:24:00;;;;;;;15.00;1.90;;;;;;;13.32;44.04;101452.25;5087670;28;20576;-52
2021/03/16 11:26:27;;;;;;;7.70;2.20;;;;;;;13.29;43.34;101451.22;5096541;28;20460;-53
2021/03/16 11:28:54;;;;;;;10.30;2.10;;;;;;;13.59;43.65;101456.81;5094560;28;20936;-53